Time;durP1;ratioP1;P1;durP2;ratioP2;P2;SDS_P1;SDS_P2;PMS_P1;PMS_P2;Temp;Humidity;BMP_temperature;BMP_pressure;BME280_temperature;BME280_humidity;BME280_pressure;Samples;Min_cycle;Max_cycle;Signal;HPM_P1;HPM_P2
2022/12/31 00:00:14;;;;;;;1.13;0.28;;;13.20;99.90;;;;;;4905801;29;20319;-81
2022/12/31 06:02:39;;;;;;;0.50;0.20;;;15.00;99.90;;;;;;5388574;23;20048;-83
2022/12/31 06:05:06;;;;;;;0.40;0.10;;;15.00;99.90;;;;;;4924096;29;20042;-83
2022/12/31 06:07:31;;;;;;;2.20;0.22;;;15.00;99.90;;;;;;4925072;29;20238;-83
2022/12/31 06:10:00;;;;;;;1.48;0.40;;;15.10;99.90;;;;;;4925554;29;20032;-81
2022/12/31 06:12:26;;;;;;;1.05;0.20;;;15.00;99.90;;;;;;4924961;29;20337;-81
2022/12/31 06:14:52;;;;;;;0.38;0.10;;;15.10;99.90;;;;;;4924629;29;20023;-80
2022/12/31 06:17:19;;;;;;;1.95;0.30;;;15.10;99.90;;;;;;4927421;29;20061;-82
2022/12/31 06:20:03;;;;;;;1.02;0.32;;;15.20;99.90;;;;;;4913047;29;20024;-81
2022/12/31 06:22:29;;;;;;;1.65;0.20;;;15.30;99.90;;;;;;4928613;29;20032;-79
2022/12/31 06:24:55;;;;;;;0.82;0.20;;;15.30;99.90;;;;;;4929473;29;20049;-80
2022/12/31 06:27:20;;;;;;;0.38;0.20;;;15.30;99.90;;;;;;4929885;29;20040;-81
2022/12/31 06:29:49;;;;;;;0.30;0.10;;;15.30;99.90;;;;;;4929265;29;20326;-81
2022/12/31 06:32:21;;;;;;;0.77;0.30;;;15.40;99.90;;;;;;4928335;29;20036;-81
2022/12/31 06:34:59;;;;;;;0.77;0.20;;;15.40;99.90;;;;;;4927764;29;20072;-81
2022/12/31 06:37:26;;;;;;;0.68;0.20;;;15.30;99.90;;;;;;4910530;29;20055;-81
2022/12/31 06:39:51;;;;;;;0.95;0.52;;;15.40;99.90;;;;;;4909026;29;20250;-80
2022/12/31 06:42:17;;;;;;;1.20;0.20;;;15.50;99.90;;;;;;4910693;29;20042;-79
2022/12/31 06:44:43;;;;;;;1.48;0.20;;;15.60;99.90;;;;;;4893993;29;20025;-79
2022/12/31 06:47:09;;;;;;;0.65;0.20;;;15.60;99.90;;;;;;4909317;29;20306;-81
2022/12/31 06:49:39;;;;;;;0.45;0.20;;;15.70;99.90;;;;;;4910329;29;20039;-82
2022/12/31 06:52:05;;;;;;;1.05;0.32;;;15.70;99.90;;;;;;4909924;29;20028;-81
2022/12/31 06:54:33;;;;;;;0.98;0.20;;;15.70;99.90;;;;;;4910380;29;20103;-80
2022/12/31 06:57:26;;;;;;;1.00;0.30;;;15.70;99.90;;;;;;4912520;29;20099;-81
2022/12/31 06:59:52;;;;;;;0.50;0.17;;;15.70;99.90;;;;;;4922656;29;20232;-81
2022/12/31 07:02:44;;;;;;;0.82;0.22;;;15.50;99.90;;;;;;4928803;29;20102;-81
2022/12/31 07:05:40;;;;;;;2.28;0.20;;;15.60;99.90;;;;;;4927626;29;20098;-82
2022/12/31 07:08:40;;;;;;;1.52;0.30;;;15.50;99.90;;;;;;4928601;29;20067;-80
2022/12/31 07:11:28;;;;;;;0.95;0.20;;;15.50;99.90;;;;;;4928481;29;20032;-84
2022/12/31 07:14:24;;;;;;;0.80;0.20;;;15.50;99.90;;;;;;4928808;29;20095;-79
2022/12/31 07:17:19;;;;;;;1.08;0.20;;;15.40;99.90;;;;;;4927253;29;20044;-79
2022/12/31 07:20:09;;;;;;;1.05;0.20;;;15.40;99.90;;;;;;4929115;29;20052;-81
2022/12/31 07:22:35;;;;;;;1.95;0.20;;;15.40;99.90;;;;;;4928895;29;20036;-80
2022/12/31 07:25:02;;;;;;;0.60;0.17;;;15.50;99.90;;;;;;4926815;29;20313;-80
2022/12/31 07:27:57;;;;;;;0.70;0.10;;;15.50;99.90;;;;;;4926923;29;20076;-79
2022/12/31 07:30:47;;;;;;;1.33;0.30;;;15.40;99.90;;;;;;4929464;29;20450;-81
2022/12/31 07:33:44;;;;;;;0.35;0.10;;;15.40;99.90;;;;;;4928972;29;20036;-83
2022/12/31 07:36:34;;;;;;;0.75;0.20;;;15.50;99.90;;;;;;4929104;29;20038;-81
2022/12/31 07:39:07;;;;;;;0.80;0.20;;;15.60;99.90;;;;;;4911673;29;20028;-80
2022/12/31 07:42:03;;;;;;;1.10;0.30;;;15.70;99.90;;;;;;4928806;29;20079;-81
2022/12/31 07:44:57;;;;;;;0.65;0.13;;;15.70;99.90;;;;;;4927618;29;20306;-83
2022/12/31 07:47:29;;;;;;;0.80;0.30;;;15.80;99.90;;;;;;4927762;29;20043;-82
2022/12/31 07:49:56;;;;;;;0.35;0.10;;;15.90;99.90;;;;;;4927205;29;20080;-79
2022/12/31 07:52:26;;;;;;;1.00;0.35;;;16.00;99.90;;;;;;4927654;29;20039;-82
2022/12/31 07:54:52;;;;;;;0.80;0.30;;;16.00;99.90;;;;;;4928285;29;20217;-82
2022/12/31 07:57:20;;;;;;;1.00;0.30;;;16.00;99.90;;;;;;4927263;29;20024;-81
2022/12/31 08:00:10;;;;;;;0.90;0.20;;;16.00;99.90;;;;;;4928479;29;20094;-81
2022/12/31 08:02:38;;;;;;;0.55;0.20;;;16.10;99.90;;;;;;4928047;29;20088;-83
2022/12/31 08:05:17;;;;;;;0.90;0.22;;;16.10;99.90;;;;;;4907816;29;20028;-81
2022/12/31 08:07:56;;;;;;;1.15;0.20;;;16.10;99.90;;;;;;4908378;29;20108;-80
2022/12/31 08:10:27;;;;;;;1.23;0.38;;;16.10;99.90;;;;;;4909237;29;20029;-77
2022/12/31 08:13:08;;;;;;;1.10;0.50;;;16.00;99.90;;;;;;4908510;29;20093;-87
2022/12/31 08:15:35;;;;;;;0.60;0.20;;;16.10;99.90;;;;;;4931063;29;20055;-79
2022/12/31 08:18:01;;;;;;;0.67;0.20;;;16.10;99.90;;;;;;4936439;29;20047;-82
2022/12/31 08:20:30;;;;;;;0.85;0.20;;;16.10;99.90;;;;;;4922004;29;20275;-83
2022/12/31 08:23:18;;;;;;;1.67;0.40;;;16.30;99.90;;;;;;4915362;29;20032;-81
2022/12/31 08:25:57;;;;;;;0.75;0.25;;;16.30;99.90;;;;;;4927162;29;20028;-78
2022/12/31 08:28:58;;;;;;;0.52;0.20;;;16.30;99.90;;;;;;4910358;29;20033;-81
2022/12/31 08:31:56;;;;;;;1.95;0.30;;;16.40;99.90;;;;;;4908210;29;20040;-81
2022/12/31 08:35:00;;;;;;;0.68;0.20;;;16.40;99.90;;;;;;4927164;29;20035;-81
2022/12/31 08:37:46;;;;;;;1.27;0.30;;;16.40;99.90;;;;;;4908047;29;20056;-82
2022/12/31 08:40:37;;;;;;;0.50;0.20;;;16.40;99.90;;;;;;4907252;29;20252;-80
2022/12/31 08:43:43;;;;;;;0.90;0.30;;;16.40;99.90;;;;;;4922689;29;20029;-81
2022/12/31 08:46:39;;;;;;;1.27;0.35;;;16.40;99.90;;;;;;4910090;29;20036;-81
2022/12/31 08:49:07;;;;;;;1.38;0.20;;;16.50;99.90;;;;;;4908603;29;20267;-78
2022/12/31 08:51:33;;;;;;;;;;;16.50;99.90;;;;;;4927941;29;20040;-81
2022/12/31 08:53:59;;;;;;;0.90;0.28;;;16.50;99.90;;;;;;4926355;29;19954;-81
2022/12/31 08:56:40;;;;;;;0.60;0.20;;;16.60;99.90;;;;;;4926434;29;20317;-83
2022/12/31 08:59:18;;;;;;;1.15;0.40;;;16.60;99.90;;;;;;4925882;29;20087;-83
2022/12/31 09:02:32;;;;;;;1.87;0.40;;;16.70;99.90;;;;;;4928112;29;20064;-80
2022/12/31 09:05:49;;;;;;;1.00;0.28;;;16.70;99.90;;;;;;4910214;29;20024;-79
2022/12/31 09:08:30;;;;;;;1.15;0.25;;;16.80;99.90;;;;;;4908100;29;20377;-80
2022/12/31 09:11:19;;;;;;;1.25;0.40;;;16.80;99.90;;;;;;4891460;29;20306;-81
2022/12/31 09:14:19;;;;;;;1.42;0.35;;;16.80;99.90;;;;;;4923193;29;20052;-83
2022/12/31 09:17:17;;;;;;;0.80;0.30;;;16.80;99.90;;;;;;4908099;29;20064;-82
2022/12/31 09:19:44;;;;;;;1.55;0.20;;;16.90;99.90;;;;;;4909780;29;20206;-83
2022/12/31 09:22:10;;;;;;;1.13;0.30;;;16.90;99.90;;;;;;4926431;29;20068;-79
2022/12/31 09:24:36;;;;;;;1.02;0.25;;;17.00;99.90;;;;;;4925679;29;20035;-80
2022/12/31 09:27:26;;;;;;;4.10;0.40;;;17.10;99.90;;;;;;4901657;29;20028;-80
2022/12/31 09:30:15;;;;;;;0.95;0.28;;;17.20;99.90;;;;;;4906391;29;20041;-83
2022/12/31 09:32:59;;;;;;;1.40;0.30;;;17.30;99.90;;;;;;4907158;29;20036;-82
2022/12/31 09:35:46;;;;;;;0.98;0.30;;;17.30;99.90;;;;;;4906910;29;20144;-81
2022/12/31 09:38:36;;;;;;;1.13;0.37;;;17.40;99.90;;;;;;4905986;29;20036;-81
2022/12/31 09:41:15;;;;;;;1.00;0.20;;;17.60;99.90;;;;;;4905753;29;20035;-77
2022/12/31 09:43:49;;;;;;;0.88;0.30;;;17.60;99.90;;;;;;4906545;29;20108;-77
2022/12/31 09:46:48;;;;;;;0.93;0.28;;;17.70;99.90;;;;;;4906471;29;20325;-74
2022/12/31 09:49:44;;;;;;;1.40;0.40;;;17.80;99.90;;;;;;4906160;29;20522;-79
2022/12/31 09:52:28;;;;;;;1.20;0.30;;;17.80;99.90;;;;;;4904847;29;20321;-74
2022/12/31 09:55:15;;;;;;;1.10;0.32;;;17.90;99.90;;;;;;4920544;29;20099;-80
2022/12/31 09:57:52;;;;;;;1.33;0.30;;;18.00;99.90;;;;;;4917798;29;20036;-81
2022/12/31 10:00:42;;;;;;;1.05;0.35;;;18.00;99.90;;;;;;4906924;29;20221;-80
2022/12/31 10:03:39;;;;;;;0.73;0.20;;;18.10;99.90;;;;;;4902941;29;20048;-81
2022/12/31 10:06:35;;;;;;;2.43;0.40;;;18.20;99.90;;;;;;4924895;29;20032;-80
2022/12/31 10:09:15;;;;;;;1.13;0.20;;;18.30;99.90;;;;;;4925573;29;20336;-79
2022/12/31 10:12:05;;;;;;;1.30;0.20;;;18.50;99.90;;;;;;4925988;29;20372;-77
2022/12/31 10:14:56;;;;;;;1.40;0.30;;;18.50;99.90;;;;;;4921342;29;20043;-81
2022/12/31 10:17:47;;;;;;;2.60;0.20;;;18.50;99.90;;;;;;4925839;29;20063;-77
2022/12/31 10:20:54;;;;;;;0.75;0.20;;;18.60;99.90;;;;;;4908712;29;20035;-80
2022/12/31 10:23:40;;;;;;;1.55;0.22;;;18.60;99.90;;;;;;4923630;29;20062;-81
2022/12/31 10:26:08;;;;;;;1.30;0.20;;;18.60;99.90;;;;;;4907086;29;20029;-78
2022/12/31 10:28:34;;;;;;;;;;;18.60;99.90;;;;;;4908959;29;20111;-77
2022/12/31 10:31:30;;;;;;;1.02;0.20;;;18.60;99.90;;;;;;4925170;29;20219;-78
2022/12/31 10:34:11;;;;;;;1.83;0.45;;;18.60;99.90;;;;;;4925387;29;20032;-78
2022/12/31 10:36:50;;;;;;;1.45;0.38;;;18.70;99.70;;;;;;4925514;29;20024;-81
2022/12/31 10:39:19;;;;;;;1.55;0.30;;;18.80;99.50;;;;;;4925079;29;20357;-79
2022/12/31 10:42:16;;;;;;;1.98;0.40;;;18.80;99.30;;;;;;4923982;29;20206;-78
2022/12/31 10:45:14;;;;;;;2.08;0.40;;;18.90;99.00;;;;;;4925698;29;20032;-78
2022/12/31 10:48:08;;;;;;;1.33;0.30;;;19.00;98.90;;;;;;4923337;29;20369;-77
2022/12/31 10:51:14;;;;;;;1.13;0.20;;;19.20;98.50;;;;;;4923646;29;20258;-77
2022/12/31 10:54:13;;;;;;;1.20;0.20;;;19.30;98.40;;;;;;4922116;29;20036;-76
2022/12/31 10:56:39;;;;;;;0.63;0.20;;;19.60;97.70;;;;;;4923487;29;20020;-78
2022/12/31 10:59:21;;;;;;;2.35;0.30;;;19.80;97.30;;;;;;4921412;29;20047;-78
2022/12/31 11:01:49;;;;;;;1.25;0.20;;;20.10;96.90;;;;;;4924663;29;20084;-78
2022/12/31 11:04:45;;;;;;;0.82;0.20;;;20.20;96.40;;;;;;4914240;29;20055;-78
2022/12/31 11:07:28;;;;;;;0.73;0.20;;;20.40;96.20;;;;;;4908895;29;20084;-79
2022/12/31 11:10:26;;;;;;;0.90;0.20;;;20.50;95.80;;;;;;4911328;29;20037;-78
2022/12/31 11:13:13;;;;;;;1.80;0.30;;;20.90;95.40;;;;;;4909951;29;20051;-81
2022/12/31 11:15:54;;;;;;;0.90;0.30;;;21.10;94.70;;;;;;4924242;29;20254;-77
2022/12/31 11:18:39;;;;;;;0.73;0.20;;;21.10;94.30;;;;;;4926871;29;20181;-78
2022/12/31 11:21:14;;;;;;;1.10;0.20;;;21.20;93.80;;;;;;4911038;29;20032;-75
2022/12/31 11:24:13;;;;;;;0.93;0.20;;;21.50;93.60;;;;;;4928899;29;20032;-79
2022/12/31 11:26:51;;;;;;;0.93;0.30;;;21.60;92.90;;;;;;4927288;29;20087;-78
2022/12/31 11:29:39;;;;;;;;;;;21.80;92.60;;;;;;4943118;29;20228;-79
2022/12/31 11:32:43;;;;;;;1.02;0.20;;;21.70;92.30;;;;;;4928065;29;19982;-80
2022/12/31 11:35:32;;;;;;;1.30;0.30;;;21.80;92.10;;;;;;4928155;29;20028;-78
2022/12/31 11:38:08;;;;;;;1.15;0.20;;;22.00;92.20;;;;;;4928536;29;20034;-81
2022/12/31 11:40:40;;;;;;;0.98;0.20;;;22.00;91.40;;;;;;4928917;29;20043;-79
2022/12/31 11:43:34;;;;;;;1.90;0.20;;;21.90;91.50;;;;;;4927009;29;20047;-80
2022/12/31 11:46:15;;;;;;;1.05;0.20;;;22.00;91.30;;;;;;4927743;29;20051;-81
2022/12/31 11:49:12;;;;;;;1.08;0.20;;;22.00;91.10;;;;;;4927070;29;20038;-80
2022/12/31 11:52:08;;;;;;;2.67;0.30;;;22.20;90.90;;;;;;4926886;29;20047;-79
2022/12/31 11:54:40;;;;;;;0.80;0.20;;;22.30;90.80;;;;;;4928399;29;20080;-77
2022/12/31 11:57:18;;;;;;;0.55;0.20;;;22.40;90.50;;;;;;4924165;29;20047;-79
2022/12/31 11:59:46;;;;;;;1.30;0.35;;;22.80;89.90;;;;;;4909460;29;20087;-78
2022/12/31 12:02:36;;;;;;;1.23;0.20;;;22.90;89.70;;;;;;4907342;29;20231;-78
2022/12/31 12:05:05;;;;;;;0.60;0.20;;;22.70;90.00;;;;;;4937583;29;20085;-82
2022/12/31 12:07:32;;;;;;;0.70;0.20;;;22.90;88.80;;;;;;4909212;29;20085;-79
2022/12/31 12:17:41;;;;;;;1.90;0.20;;;23.80;86.50;;;;;;4926879;29;20191;-79
2022/12/31 12:20:30;;;;;;;2.03;0.25;;;24.40;85.50;;;;;;4925041;29;20040;-78
2022/12/31 12:23:16;;;;;;;2.45;0.30;;;24.40;85.30;;;;;;4906737;29;20079;-82
2022/12/31 12:25:49;;;;;;;1.17;0.20;;;25.00;83.20;;;;;;4942860;29;20032;-80
2022/12/31 12:28:18;;;;;;;1.20;0.30;;;24.90;83.00;;;;;;4927107;29;20067;-81
2022/12/31 12:30:54;;;;;;;1.80;0.40;;;25.20;82.40;;;;;;4928369;29;20028;-80
2022/12/31 12:33:21;;;;;;;1.08;0.20;;;25.00;82.30;;;;;;4926122;29;20036;-78
2022/12/31 12:35:47;;;;;;;1.38;0.32;;;24.50;82.40;;;;;;4942817;29;20032;-79
2022/12/31 12:38:16;;;;;;;1.73;0.30;;;24.00;83.40;;;;;;4926922;29;20103;-80
2022/12/31 12:40:53;;;;;;;2.53;0.40;;;23.50;84.70;;;;;;4941352;28;20245;-80
2022/12/31 12:43:34;;;;;;;1.25;0.20;;;23.20;84.60;;;;;;4926456;29;20087;-78
2022/12/31 12:46:05;;;;;;;1.13;0.25;;;22.90;86.00;;;;;;4941631;29;20074;-78
2022/12/31 12:48:37;;;;;;;1.67;0.20;;;22.70;86.30;;;;;;4926309;29;20050;-78
2022/12/31 12:51:18;;;;;;;0.82;0.30;;;22.40;87.00;;;;;;4926462;29;20099;-78
2022/12/31 12:53:47;;;;;;;1.40;0.30;;;22.50;86.00;;;;;;4906557;29;20031;-80
2022/12/31 12:57:27;;;;;;;1.45;0.20;;;22.80;86.20;;;;;;4920129;29;20077;-77
2022/12/31 13:00:40;;;;;;;1.60;0.30;;;23.00;85.10;;;;;;4899520;29;20057;-79
2022/12/31 13:03:52;;;;;;;1.65;0.30;;;22.90;84.80;;;;;;4894439;29;20040;-80
2022/12/31 13:07:06;;;;;;;0.55;0.15;;;22.50;85.60;;;;;;4886923;29;20045;-79
2022/12/31 13:10:03;;;;;;;1.10;0.20;;;22.20;85.90;;;;;;4887482;29;20053;-81
2022/12/31 13:12:41;;;;;;;1.15;0.28;;;21.90;86.00;;;;;;4871831;29;20049;-80
2022/12/31 13:15:36;;;;;;;0.93;0.40;;;21.70;87.70;;;;;;4870939;29;20029;-79
2022/12/31 13:18:32;;;;;;;0.52;0.20;;;21.60;87.00;;;;;;4887204;29;20056;-83
2022/12/31 13:21:06;;;;;;;2.92;0.20;;;21.50;86.60;;;;;;4887568;29;20084;-78
2022/12/31 13:24:12;;;;;;;0.98;0.35;;;21.30;87.20;;;;;;4871444;29;20025;-78
2022/12/31 13:26:48;;;;;;;0.77;0.20;;;21.40;87.30;;;;;;4881821;29;20029;-78
2022/12/31 13:29:21;;;;;;;1.00;0.20;;;21.30;87.60;;;;;;4905618;29;20111;-80
2022/12/31 13:31:54;;;;;;;0.75;0.20;;;21.30;87.50;;;;;;4905924;29;20071;-78
2022/12/31 13:34:28;;;;;;;0.60;0.20;;;21.30;87.50;;;;;;4906588;29;20028;-79
2022/12/31 13:37:01;;;;;;;1.17;0.10;;;21.20;87.10;;;;;;4927231;29;20051;-81
2022/12/31 13:39:31;;;;;;;0.70;0.20;;;21.20;86.90;;;;;;4927868;29;20031;-79
2022/12/31 13:42:09;;;;;;;0.50;0.10;;;21.10;87.30;;;;;;4926151;29;20024;-77
2022/12/31 13:44:43;;;;;;;0.40;0.13;;;21.20;88.00;;;;;;4926240;29;20055;-76
2022/12/31 13:47:13;;;;;;;0.98;0.20;;;21.10;88.10;;;;;;4925802;29;20031;-78
2022/12/31 13:49:38;;;;;;;1.38;0.30;;;21.00;87.70;;;;;;4927203;29;20313;-77
2022/12/31 13:52:26;;;;;;;1.73;0.20;;;20.90;87.90;;;;;;4925289;29;20039;-77
2022/12/31 13:54:55;;;;;;;1.38;0.30;;;20.80;88.50;;;;;;4924370;29;20067;-79
2022/12/31 13:57:55;;;;;;;0.52;0.30;;;20.70;88.80;;;;;;4924323;29;20024;-78
2022/12/31 14:00:22;;;;;;;0.32;0.20;;;20.70;89.50;;;;;;4925751;29;20034;-78
2022/12/31 14:03:13;;;;;;;1.20;0.40;;;20.70;90.00;;;;;;4924637;29;20046;-78
2022/12/31 14:06:08;;;;;;;1.58;0.40;;;20.60;90.30;;;;;;4940037;29;20032;-77
2022/12/31 14:08:34;;;;;;;0.88;0.30;;;20.60;91.00;;;;;;4908436;29;20047;-77
2022/12/31 14:11:09;;;;;;;1.67;0.30;;;20.50;90.90;;;;;;4925458;29;20017;-78
2022/12/31 14:13:54;;;;;;;1.17;0.50;;;20.40;90.90;;;;;;4924259;29;20036;-82
2022/12/31 14:16:23;;;;;;;2.17;0.50;;;20.30;90.90;;;;;;4924822;29;20020;-79
2022/12/31 14:19:10;;;;;;;1.58;0.40;;;20.20;91.40;;;;;;4924404;29;20051;-80
2022/12/31 14:21:45;;;;;;;1.80;0.60;;;20.20;91.20;;;;;;4923997;29;20024;-78
2022/12/31 14:24:29;;;;;;;1.40;0.60;;;20.10;91.30;;;;;;4925069;29;20084;-78
2022/12/31 14:27:08;;;;;;;1.50;0.40;;;20.00;91.60;;;;;;4917411;29;20314;-80
2022/12/31 14:29:50;;;;;;;1.00;0.30;;;19.90;91.30;;;;;;4905357;29;20043;-78
2022/12/31 14:32:28;;;;;;;1.25;0.38;;;19.90;91.40;;;;;;4889649;29;20076;-78
2022/12/31 14:35:12;;;;;;;1.73;0.50;;;19.80;91.20;;;;;;4910168;29;20036;-78
2022/12/31 14:37:45;;;;;;;2.15;0.30;;;19.80;91.10;;;;;;4922188;29;20021;-82
2022/12/31 14:40:21;;;;;;;1.58;0.50;;;19.70;91.30;;;;;;4910197;29;20028;-81
2022/12/31 14:43:27;;;;;;;1.50;0.45;;;19.60;91.40;;;;;;4921470;29;20108;-79
2022/12/31 14:45:59;;;;;;;1.13;0.40;;;19.50;91.80;;;;;;4925096;29;20306;-82
2022/12/31 14:48:59;;;;;;;1.13;0.30;;;19.40;92.10;;;;;;4919538;29;20199;-80
2022/12/31 14:51:29;;;;;;;0.85;0.30;;;19.30;92.30;;;;;;4943132;29;20024;-81
2022/12/31 14:54:03;;;;;;;1.73;0.43;;;19.20;92.50;;;;;;4927747;29;20035;-80
2022/12/31 14:56:50;;;;;;;2.30;0.30;;;19.10;92.70;;;;;;4928425;29;20047;-81
2022/12/31 14:59:32;;;;;;;1.42;0.50;;;19.00;93.00;;;;;;4927264;29;20024;-80
2022/12/31 15:01:58;;;;;;;1.42;0.52;;;18.90;93.20;;;;;;4927300;29;20040;-78
2022/12/31 15:04:33;;;;;;;2.78;0.80;;;18.80;93.40;;;;;;4927818;29;20024;-79
2022/12/31 15:07:13;;;;;;;1.27;0.40;;;18.70;93.70;;;;;;4928886;29;20110;-81
2022/12/31 15:10:00;;;;;;;1.27;0.60;;;18.60;93.90;;;;;;4911608;29;20058;-81
2022/12/31 15:13:00;;;;;;;1.92;0.70;;;18.50;94.10;;;;;;4909313;29;20303;-79
2022/12/31 15:16:06;;;;;;;2.05;0.50;;;18.50;94.30;;;;;;4909228;29;20246;-79
2022/12/31 15:18:42;;;;;;;1.13;0.43;;;18.40;94.50;;;;;;4867255;29;20033;-80
2022/12/31 15:21:48;;;;;;;1.48;0.70;;;18.30;94.60;;;;;;4918685;29;20075;-81
2022/12/31 15:24:23;;;;;;;2.03;0.77;;;18.40;94.60;;;;;;4917554;29;20044;-82
2022/12/31 15:26:55;;;;;;;1.70;0.60;;;18.20;94.80;;;;;;4914829;29;20188;-79
2022/12/31 15:29:35;;;;;;;1.38;0.57;;;18.10;95.00;;;;;;4926435;29;20035;-79
2022/12/31 15:35:20;;;;;;;3.38;0.60;;;17.90;95.20;;;;;;4927517;29;20117;-81
2022/12/31 15:38:00;;;;;;;1.52;0.52;;;17.90;95.60;;;;;;4911038;29;20044;-84
2022/12/31 15:40:29;;;;;;;1.65;0.50;;;17.80;95.40;;;;;;4926345;29;20047;-81
2022/12/31 15:43:03;;;;;;;1.75;0.60;;;17.80;95.40;;;;;;4927956;29;20035;-80
2022/12/31 15:45:47;;;;;;;2.47;1.00;;;17.70;95.50;;;;;;4912482;29;20032;-81
2022/12/31 15:48:26;;;;;;;2.22;0.68;;;17.70;95.40;;;;;;4910805;29;20059;-80
2022/12/31 15:50:56;;;;;;;2.33;0.80;;;17.70;95.30;;;;;;4910992;29;20020;-79
2022/12/31 15:53:37;;;;;;;1.70;0.63;;;17.70;95.30;;;;;;4926123;29;20031;-81
2022/12/31 15:56:06;;;;;;;2.58;0.70;;;17.60;95.30;;;;;;4927872;29;20027;-81
2022/12/31 15:58:34;;;;;;;2.72;1.13;;;17.60;95.20;;;;;;4926410;29;20044;-79
2022/12/31 16:01:12;;;;;;;;;;;17.50;95.40;;;;;;4908198;29;20024;-81
2022/12/31 16:03:43;;;;;;;2.78;0.95;;;17.50;95.50;;;;;;4907462;29;20002;-80
2022/12/31 16:06:15;;;;;;;2.25;0.80;;;17.30;95.80;;;;;;4928391;29;20283;-79
2022/12/31 16:08:51;;;;;;;1.75;0.80;;;17.30;95.80;;;;;;4926526;29;20040;-81
2022/12/31 16:11:17;;;;;;;4.03;1.65;;;17.30;95.60;;;;;;4926941;29;20024;-80
2022/12/31 16:13:49;;;;;;;3.50;1.60;;;17.30;96.00;;;;;;4927220;29;20318;-78
2022/12/31 16:16:23;;;;;;;2.63;1.10;;;17.20;96.30;;;;;;4920190;29;20358;-79
2022/12/31 16:18:49;;;;;;;2.55;1.30;;;17.10;96.40;;;;;;4926442;29;20032;-79
2022/12/31 16:21:31;;;;;;;4.13;1.70;;;17.00;96.80;;;;;;4926840;29;20047;-81
2022/12/31 16:24:00;;;;;;;2.55;1.40;;;16.90;97.00;;;;;;4925721;29;20036;-78
2022/12/31 16:26:35;;;;;;;;;;;16.80;97.10;;;;;;4906960;29;20043;-78
2022/12/31 16:29:03;;;;;;;5.18;2.05;;;16.80;97.00;;;;;;4908301;29;19998;-78
2022/12/31 16:31:30;;;;;;;4.80;2.65;;;16.70;97.30;;;;;;4906420;29;20311;-78
2022/12/31 16:34:10;;;;;;;8.98;4.93;;;16.60;97.50;;;;;;4908202;29;20033;-78
2022/12/31 16:36:36;;;;;;;25.25;14.65;;;16.50;97.70;;;;;;4908038;29;20040;-79
2022/12/31 16:39:23;;;;;;;9.15;4.90;;;16.40;97.70;;;;;;4891328;29;20032;-79
2022/12/31 16:41:50;;;;;;;8.85;3.97;;;16.40;97.80;;;;;;4907990;29;20326;-81
2022/12/31 16:44:27;;;;;;;7.78;4.80;;;16.40;97.90;;;;;;4906348;29;20051;-80
2022/12/31 16:46:59;;;;;;;8.00;4.82;;;16.30;97.90;;;;;;4907178;29;20134;-78
2022/12/31 16:49:28;;;;;;;9.15;5.88;;;16.20;98.00;;;;;;4907388;29;20036;-78
2022/12/31 16:51:58;;;;;;;30.02;17.73;;;16.10;98.20;;;;;;4908044;29;20032;-78
2022/12/31 16:54:31;;;;;;;115.13;73.15;;;16.00;98.40;;;;;;4917024;29;20024;-80
2022/12/31 16:56:58;;;;;;;104.95;64.13;;;16.00;98.60;;;;;;4941270;29;20108;-82
2022/12/31 16:59:29;;;;;;;153.13;92.28;;;15.90;98.70;;;;;;4918896;29;20047;-81
2022/12/31 17:01:58;;;;;;;107.63;66.50;;;15.90;98.80;;;;;;4921269;29;20036;-79
2022/12/31 17:04:24;;;;;;;70.65;44.25;;;15.90;99.00;;;;;;4921856;29;20055;-79
2022/12/31 17:06:50;;;;;;;166.38;109.90;;;15.90;99.00;;;;;;4907518;29;20043;-81
2022/12/31 17:09:21;;;;;;;87.65;59.10;;;15.80;99.20;;;;;;4921294;29;20029;-79
2022/12/31 17:11:54;;;;;;;24.88;15.98;;;15.80;99.30;;;;;;4922445;29;20147;-80
2022/12/31 17:14:25;;;;;;;70.40;40.97;;;15.80;99.40;;;;;;4921863;29;20183;-79
2022/12/31 17:17:06;;;;;;;196.07;109.53;;;15.80;99.40;;;;;;4907942;29;20032;-80
2022/12/31 17:19:38;;;;;;;132.48;82.22;;;15.80;99.40;;;;;;4906760;29;20055;-77
2022/12/31 17:22:09;;;;;;;103.45;67.38;;;15.80;99.50;;;;;;4921988;29;20028;-80
2022/12/31 17:24:37;;;;;;;34.88;22.58;;;15.80;99.50;;;;;;4929478;29;20028;-81
2022/12/31 17:27:10;;;;;;;35.72;22.58;;;15.90;99.30;;;;;;4907815;29;20024;-79
2022/12/31 17:29:41;;;;;;;16.45;10.82;;;15.80;99.30;;;;;;4906394;29;20374;-80
2022/12/31 17:32:28;;;;;;;16.00;10.40;;;15.90;99.40;;;;;;4938042;29;20044;-78
2022/12/31 17:34:54;;;;;;;36.30;23.33;;;15.80;99.40;;;;;;4907889;29;20039;-79
2022/12/31 17:37:32;;;;;;;34.83;20.77;;;15.70;99.70;;;;;;4906382;29;20025;-80
2022/12/31 17:40:02;;;;;;;55.83;34.92;;;15.70;99.90;;;;;;4907254;29;20095;-82
2022/12/31 17:42:36;;;;;;;85.85;49.60;;;15.70;99.80;;;;;;4905662;29;20095;-79
2022/12/31 17:45:14;;;;;;;57.78;37.80;;;15.60;99.70;;;;;;4907444;29;20048;-80
2022/12/31 17:47:46;;;;;;;41.13;26.23;;;15.60;99.80;;;;;;4922634;29;20028;-80
2022/12/31 17:50:24;;;;;;;34.45;22.38;;;15.60;99.90;;;;;;4906960;29;20039;-79
2022/12/31 17:52:55;;;;;;;31.83;20.07;;;15.50;99.90;;;;;;4939189;29;20033;-81
2022/12/31 17:55:21;;;;;;;23.45;14.27;;;15.50;99.90;;;;;;4923067;29;20056;-79
2022/12/31 17:57:52;;;;;;;25.77;16.90;;;15.60;99.90;;;;;;4926055;29;20263;-82
2022/12/31 18:00:21;;;;;;;32.33;20.10;;;15.60;99.90;;;;;;4923780;29;20036;-79
2022/12/31 18:02:47;;;;;;;24.85;17.08;;;15.50;99.90;;;;;;4925834;29;20107;-81
2022/12/31 18:05:16;;;;;;;26.33;18.30;;;15.50;99.90;;;;;;4911148;29;20191;-80
2022/12/31 18:07:42;;;;;;;;;;;15.50;99.90;;;;;;4928776;29;20043;-80
2022/12/31 18:10:08;;;;;;;21.50;13.07;;;15.50;99.90;;;;;;4922705;29;19986;-80
2022/12/31 18:12:34;;;;;;;22.52;14.10;;;15.60;99.80;;;;;;4911606;29;20072;-79
2022/12/31 18:15:00;;;;;;;11.45;7.50;;;15.60;99.80;;;;;;4915780;29;20306;-83
2022/12/31 18:17:27;;;;;;;7.20;4.93;;;15.60;99.70;;;;;;4915140;29;20025;-79
2022/12/31 18:19:53;;;;;;;18.10;12.02;;;15.70;99.60;;;;;;4928127;29;20055;-81
2022/12/31 18:22:19;;;;;;;12.82;8.30;;;15.60;99.60;;;;;;4934319;29;20214;-81
2022/12/31 18:24:50;;;;;;;9.10;4.70;;;15.60;99.50;;;;;;4924374;29;20145;-81
2022/12/31 18:27:17;;;;;;;4.63;2.67;;;15.60;99.40;;;;;;4935002;29;20039;-80
2022/12/31 18:29:43;;;;;;;4.22;2.25;;;15.70;99.30;;;;;;4932878;29;20195;-81
2022/12/31 18:32:32;;;;;;;4.55;1.67;;;15.70;99.20;;;;;;4932996;29;20238;-83
2022/12/31 18:34:58;;;;;;;3.67;2.00;;;15.80;98.90;;;;;;4933032;29;20042;-78
2022/12/31 18:37:27;;;;;;;4.35;2.03;;;15.80;98.90;;;;;;4916153;29;20036;-79
2022/12/31 18:39:52;;;;;;;7.22;2.45;;;15.80;99.20;;;;;;4913651;29;20210;-80
2022/12/31 18:42:22;;;;;;;3.58;1.92;;;15.70;99.00;;;;;;4913804;29;20025;-79
2022/12/31 18:44:48;;;;;;;3.50;1.92;;;15.60;99.00;;;;;;4913758;29;20036;-80
2022/12/31 18:47:21;;;;;;;3.53;1.70;;;15.60;99.10;;;;;;4913538;29;20096;-80
2022/12/31 18:49:48;;;;;;;4.18;2.22;;;15.70;99.00;;;;;;4913724;29;20049;-80
2022/12/31 18:52:23;;;;;;;2.75;1.48;;;15.70;98.80;;;;;;4914946;29;20020;-80
2022/12/31 18:54:49;;;;;;;5.57;2.75;;;15.80;98.80;;;;;;4927735;29;20318;-80
2022/12/31 18:57:15;;;;;;;9.32;4.28;;;15.60;98.80;;;;;;4933453;29;20031;-77
2022/12/31 18:59:44;;;;;;;9.27;5.07;;;15.70;98.80;;;;;;4933842;29;20036;-83
2022/12/31 19:02:19;;;;;;;6.82;3.67;;;15.60;98.90;;;;;;4932247;29;20044;-78
2022/12/31 19:04:46;;;;;;;7.38;3.45;;;15.60;98.90;;;;;;4949098;29;20035;-79
2022/12/31 19:07:12;;;;;;;5.63;3.22;;;15.70;98.80;;;;;;4934136;29;20060;-78
2022/12/31 19:09:41;;;;;;;6.13;3.38;;;15.50;99.00;;;;;;4932353;29;20032;-79
2022/12/31 19:12:11;;;;;;;7.35;3.17;;;15.50;99.20;;;;;;4917181;29;20194;-78
2022/12/31 19:14:37;;;;;;;5.53;3.90;;;15.40;99.20;;;;;;4933666;29;20034;-79
2022/12/31 19:17:03;;;;;;;5.78;3.72;;;15.40;99.20;;;;;;4931659;29;20055;-77
2022/12/31 19:19:28;;;;;;;17.20;12.88;;;15.40;99.20;;;;;;4931146;29;20374;-80
2022/12/31 19:21:54;;;;;;;7.18;5.43;;;15.40;99.10;;;;;;4930471;29;20052;-78
2022/12/31 19:24:25;;;;;;;7.22;4.95;;;15.40;99.10;;;;;;4928695;29;20217;-78
2022/12/31 19:26:51;;;;;;;8.15;4.70;;;15.20;99.30;;;;;;4927237;29;20075;-80
2022/12/31 19:29:26;;;;;;;7.43;4.55;;;15.00;99.70;;;;;;4926835;29;20075;-79
2022/12/31 19:31:52;;;;;;;6.72;4.00;;;14.80;99.90;;;;;;4928379;29;20080;-78
2022/12/31 19:34:18;;;;;;;7.32;4.50;;;14.70;99.90;;;;;;4942658;29;20043;-79
2022/12/31 19:36:44;;;;;;;6.95;4.05;;;14.50;99.90;;;;;;4927779;29;20038;-78
2022/12/31 19:39:15;;;;;;;10.98;5.53;;;14.40;99.90;;;;;;4928163;29;20044;-80
2022/12/31 19:41:42;;;;;;;11.85;7.15;;;14.30;99.90;;;;;;4926466;29;20325;-80
2022/12/31 19:44:16;;;;;;;9.57;5.53;;;14.20;99.90;;;;;;4910942;29;20056;-78
2022/12/31 19:46:42;;;;;;;13.70;7.13;;;14.10;99.90;;;;;;4927867;29;20052;-80
2022/12/31 19:49:12;;;;;;;17.60;9.88;;;14.00;99.90;;;;;;4926608;29;20108;-78
2022/12/31 19:51:37;;;;;;;18.25;11.95;;;14.00;99.90;;;;;;4927415;29;20024;-78